Terminal Aerodrome Forecast
Issued by NWS St Louis, MO

Home | Current Version | Previous Version | Text Only | Print | Product List | Glossary On
Versions: 1 2 3 4 5 6 7 8 9 10 11 12 13 14 15 16 17
000
FTUS43 KLSX 251740
TAFCOU
TAF
KCOU 251740Z 2518/2618 16014KT P6SM BKN050
     FM252000 16014G20KT P6SM VCTS SCT040CB BKN100
     FM260100 17009KT P6SM OVC050
     FM260900 19008KT P6SM VCTS SCT040CB
     FM261500 18008KT P6SM SCT050=

USA.gov is the U.S. government's official web portal to all federal, state and local government web resources and services.